Welby, Colorado
Current Conditions -  °F | °C
As of 6:45 AM on Saturday 25 Oct 2014 (Local Time) from KBJC Reporting Station
Clear Clear  
Wind Chill: 59°   Ceiling: Unl
Heat Index: 59°   Visibility: 30mi
Dew Point: 19°   Wind: 0mph
Humidity: 22%   Direction: NA
Pressure: 30.24"   Gusts: NA
Location:  39.8532°N, 104.959°W
Report Text: KBJC 251245Z 00000KT 30SM SKC 15/M07 A3024
Loading
Personal Weather Stations






























Interactive Weather Map
Tropical Storm Tracking
New forecast layout! Learn more

10-Day Weather Forecast

Advertisements
Track Severe Weather on mobile